createdAt,value
2023-06-26T00:00:40.845Z,23.95
2023-06-26T00:03:42.694Z,23.91
2023-06-26T00:06:44.283Z,23.85
2023-06-26T00:09:45.769Z,23.86
2023-06-26T00:12:47.202Z,23.80
2023-06-26T00:15:48.703Z,23.73
2023-06-26T00:18:50.147Z,23.69
2023-06-26T00:21:51.614Z,23.66
2023-06-26T00:24:53.219Z,23.69
2023-06-26T00:27:54.658Z,23.69
2023-06-26T00:30:56.236Z,23.67
2023-06-26T00:33:57.764Z,23.50
2023-06-26T00:36:59.531Z,23.43
2023-06-26T00:40:00.983Z,23.41
2023-06-26T00:43:02.936Z,23.32
2023-06-26T00:46:04.494Z,23.33
2023-06-26T00:49:06.231Z,23.38
2023-06-26T00:52:08.789Z,23.34
2023-06-26T00:55:10.447Z,23.34
2023-06-26T00:58:12.109Z,23.32
2023-06-26T01:01:18.416Z,23.26
2023-06-26T01:04:20.016Z,23.23
2023-06-26T01:07:23.576Z,23.21
2023-06-26T01:10:25.217Z,23.11
2023-06-26T01:13:27.727Z,23.06
2023-06-26T01:16:30.626Z,23.01
2023-06-26T01:19:34.564Z,23.11
2023-06-26T01:23:08.485Z,22.90
2023-06-26T01:26:23.549Z,22.61
2023-06-26T01:29:26.689Z,22.55
2023-06-26T01:32:30.297Z,22.37
2023-06-26T01:35:32.714Z,22.21
2023-06-26T01:38:35.643Z,22.14
2023-06-26T01:41:37.477Z,22.13
2023-06-26T01:44:46.357Z,22.04
2023-06-26T01:47:51.963Z,22.00
2023-06-26T01:50:54.939Z,21.97
2023-06-26T01:53:59.811Z,21.95
2023-06-26T01:57:01.809Z,21.87
2023-06-26T02:00:04.634Z,21.81
2023-06-26T02:03:15.168Z,21.77
2023-06-26T02:06:16.658Z,21.82
2023-06-26T02:09:18.714Z,21.89
2023-06-26T02:12:20.152Z,21.84
2023-06-26T02:15:21.671Z,21.81
2023-06-26T02:18:24.262Z,21.69
2023-06-26T02:21:25.701Z,21.68
2023-06-26T02:24:30.927Z,21.43
2023-06-26T02:27:33.318Z,21.30
2023-06-26T02:30:34.762Z,21.28
2023-06-26T02:33:36.213Z,21.25
2023-06-26T02:36:37.664Z,21.23
2023-06-26T02:39:40.663Z,21.20
2023-06-26T02:42:44.564Z,21.15
2023-06-26T02:45:46.802Z,21.06
2023-06-26T02:48:48.287Z,21.01
2023-06-26T02:51:49.748Z,20.92
2023-06-26T02:54:58.518Z,20.82
2023-06-26T02:57:59.980Z,20.77
2023-06-26T03:01:01.534Z,20.68
2023-06-26T03:04:03.407Z,20.70
2023-06-26T03:07:05.470Z,20.74
2023-06-26T03:10:07.857Z,20.66
2023-06-26T03:13:09.358Z,20.62
2023-06-26T03:16:11.068Z,20.74
2023-06-26T03:19:12.968Z,20.76
2023-06-26T03:22:35.113Z,20.83
2023-06-26T03:25:36.637Z,20.86
2023-06-26T03:28:58.394Z,20.97
2023-06-26T03:32:00.040Z,21.01
2023-06-26T03:35:06.774Z,21.03
2023-06-26T03:38:08.530Z,21.13
2023-06-26T03:41:10.053Z,21.11
2023-06-26T03:44:11.547Z,21.17
2023-06-26T03:47:20.581Z,21.16
2023-06-26T03:50:22.174Z,21.16
2023-06-26T03:53:25.421Z,21.10
2023-06-26T03:56:26.950Z,21.04
2023-06-26T03:59:28.411Z,21.00
2023-06-26T04:02:30.307Z,21.01
2023-06-26T04:05:31.815Z,20.99
2023-06-26T04:08:33.468Z,20.90
2023-06-26T04:11:34.924Z,20.93
2023-06-26T04:14:36.395Z,20.88
2023-06-26T04:17:37.896Z,20.87
2023-06-26T04:20:41.963Z,20.91
2023-06-26T04:23:43.454Z,21.02
2023-06-26T04:26:46.528Z,20.93
2023-06-26T04:29:48.310Z,21.00
2023-06-26T04:32:50.297Z,20.94
2023-06-26T04:35:51.934Z,20.95
2023-06-26T04:38:53.353Z,20.92
2023-06-26T04:41:55.310Z,20.92
2023-06-26T04:44:56.741Z,20.94
2023-06-26T04:47:59.109Z,21.03
2023-06-26T04:51:01.753Z,21.03
2023-06-26T04:54:03.193Z,21.13
2023-06-26T04:57:06.592Z,21.13
2023-06-26T05:00:11.758Z,21.29
2023-06-26T05:03:15.029Z,21.34
2023-06-26T05:06:16.614Z,21.41
2023-06-26T05:09:18.122Z,21.50
2023-06-26T05:12:19.616Z,21.60
2023-06-26T05:15:21.054Z,21.58
2023-06-26T05:18:22.494Z,21.72
2023-06-26T05:21:24.244Z,21.80
2023-06-26T05:24:26.870Z,21.94
2023-06-26T05:27:28.533Z,22.08
2023-06-26T05:30:32.027Z,22.12
2023-06-26T05:33:36.121Z,22.18
2023-06-26T05:36:38.232Z,22.33
2023-06-26T05:39:39.944Z,22.44
2023-06-26T05:42:41.575Z,22.59
2023-06-26T05:45:43.212Z,22.78
2023-06-26T05:48:44.759Z,22.97
2023-06-26T05:51:46.780Z,23.07
2023-06-26T05:54:48.502Z,23.22
2023-06-26T05:57:51.744Z,23.32
2023-06-26T06:00:53.226Z,23.48
2023-06-26T06:03:54.759Z,23.61
2023-06-26T06:06:56.264Z,23.75
2023-06-26T06:09:57.771Z,23.83
2023-06-26T06:12:59.309Z,23.88
2023-06-26T06:16:00.796Z,23.96
2023-06-26T06:19:04.349Z,23.96
2023-06-26T06:22:05.791Z,24.04
2023-06-26T06:25:07.454Z,24.14
2023-06-26T06:28:08.902Z,24.26
2023-06-26T06:31:10.435Z,24.34
2023-06-26T06:34:12.914Z,24.34
2023-06-26T06:37:14.353Z,24.51
2023-06-26T06:40:16.141Z,24.65
2023-06-26T06:43:17.610Z,24.71
2023-06-26T06:46:19.135Z,24.78
2023-06-26T06:49:20.585Z,24.94
2023-06-26T06:52:22.047Z,25.07
2023-06-26T06:55:24.584Z,25.15
2023-06-26T06:58:26.099Z,25.07
2023-06-26T07:01:27.599Z,25.08
2023-06-26T07:04:29.081Z,25.37
2023-06-26T07:07:32.638Z,25.50
2023-06-26T07:10:34.104Z,25.48
2023-06-26T07:13:35.548Z,25.51
2023-06-26T07:16:37.049Z,25.67
2023-06-26T07:19:38.523Z,25.75
2023-06-26T07:22:40.388Z,25.96
2023-06-26T07:25:41.811Z,26.14
2023-06-26T07:28:43.353Z,26.33
2023-06-26T07:31:46.443Z,26.47
2023-06-26T07:34:48.090Z,26.56
2023-06-26T07:37:49.572Z,26.69
2023-06-26T07:40:51.116Z,26.84
2023-06-26T07:43:52.544Z,26.97
2023-06-26T07:46:54.126Z,27.03
2023-06-26T07:49:55.710Z,27.10
2023-06-26T07:52:57.172Z,27.19
2023-06-26T07:55:58.641Z,27.31
2023-06-26T07:59:01.495Z,27.50
2023-06-26T08:02:03.390Z,27.62
2023-06-26T08:05:05.163Z,27.82
2023-06-26T08:08:07.695Z,27.72
2023-06-26T08:11:09.152Z,27.92
2023-06-26T08:14:10.807Z,27.98
2023-06-26T08:17:12.284Z,28.15
2023-06-26T08:20:13.873Z,28.41
2023-06-26T08:23:15.308Z,28.47
2023-06-26T08:26:16.816Z,28.54
2023-06-26T08:29:18.375Z,28.59
2023-06-26T08:32:19.912Z,28.80
2023-06-26T08:35:21.394Z,29.00
2023-06-26T08:38:22.879Z,29.00
2023-06-26T08:41:25.369Z,29.26
2023-06-26T08:44:26.973Z,29.40
2023-06-26T08:47:30.816Z,29.66
2023-06-26T08:50:34.956Z,29.70
2023-06-26T08:53:58.959Z,29.49
2023-06-26T08:57:00.747Z,29.44
2023-06-26T09:00:02.885Z,29.27
2023-06-26T09:03:04.898Z,29.39
2023-06-26T09:06:06.414Z,29.74
2023-06-26T09:09:08.723Z,29.82
2023-06-26T09:12:10.926Z,29.90
2023-06-26T09:15:16.069Z,29.75
2023-06-26T09:18:20.459Z,29.81
2023-06-26T09:21:23.212Z,29.63
2023-06-26T09:24:25.986Z,29.46
2023-06-26T09:27:27.654Z,29.43
2023-06-26T09:30:29.178Z,29.51
2023-06-26T09:33:36.885Z,29.58
2023-06-26T09:36:40.285Z,29.85
2023-06-26T09:39:42.308Z,30.00
2023-06-26T09:42:43.791Z,30.08
2023-06-26T09:45:45.402Z,29.79
2023-06-26T09:48:46.935Z,29.80
2023-06-26T09:51:50.064Z,29.60
2023-06-26T09:54:51.599Z,29.74
2023-06-26T09:57:57.553Z,30.11
2023-06-26T10:00:59.210Z,30.40
2023-06-26T10:04:03.715Z,30.14
2023-06-26T10:07:11.556Z,29.95
2023-06-26T10:10:14.252Z,30.13
2023-06-26T10:13:19.454Z,30.41
2023-06-26T10:16:26.700Z,30.61
2023-06-26T10:19:29.049Z,30.58
2023-06-26T10:22:34.672Z,30.58
2023-06-26T10:25:41.871Z,30.69
2023-06-26T10:28:46.143Z,30.59
2023-06-26T10:31:52.534Z,30.76
2023-06-26T10:34:54.454Z,30.81
2023-06-26T10:38:05.166Z,30.68
2023-06-26T10:41:14.495Z,30.71
2023-06-26T10:44:19.672Z,30.96
2023-06-26T10:47:32.470Z,31.23
2023-06-26T10:50:38.571Z,31.19
2023-06-26T10:53:41.184Z,30.93
2023-06-26T10:56:50.501Z,30.69
2023-06-26T11:00:11.186Z,30.59
2023-06-26T11:03:25.957Z,30.53
2023-06-26T11:06:27.496Z,30.37
2023-06-26T11:09:29.044Z,30.34
2023-06-26T11:12:44.042Z,30.41
2023-06-26T11:15:45.955Z,30.37
2023-06-26T11:18:47.521Z,30.22
2023-06-26T11:21:49.051Z,30.16
2023-06-26T11:24:54.852Z,30.21
2023-06-26T11:27:56.595Z,30.36
2023-06-26T11:30:58.067Z,30.47
2023-06-26T11:34:04.784Z,30.44
2023-06-26T11:37:07.611Z,30.73
2023-06-26T11:40:20.103Z,30.95
2023-06-26T11:43:21.717Z,31.06
2023-06-26T11:46:23.978Z,30.90
2023-06-26T11:49:27.249Z,30.99
2023-06-26T11:52:28.719Z,31.21
2023-06-26T11:55:42.409Z,31.10
2023-06-26T11:59:07.116Z,30.64
2023-06-26T12:02:11.929Z,30.53
2023-06-26T12:05:20.000Z,30.77
2023-06-26T12:08:22.281Z,30.87
2023-06-26T12:11:25.442Z,30.61
2023-06-26T12:14:29.501Z,30.82
2023-06-26T12:17:31.143Z,31.11
2023-06-26T12:20:33.382Z,31.37
2023-06-26T12:23:39.613Z,31.34
2023-06-26T12:26:57.621Z,31.24
2023-06-26T12:29:59.169Z,31.22
2023-06-26T12:33:02.606Z,31.30
2023-06-26T12:36:04.291Z,31.37
2023-06-26T12:39:05.715Z,31.23
2023-06-26T12:42:08.028Z,31.38
2023-06-26T12:45:31.036Z,31.38
2023-06-26T12:48:38.647Z,31.42
2023-06-26T12:51:41.325Z,31.49
2023-06-26T12:54:44.501Z,31.89
2023-06-26T12:57:46.061Z,31.68
2023-06-26T13:00:47.487Z,31.59
2023-06-26T13:03:49.035Z,31.40
2023-06-26T13:06:51.164Z,31.46
2023-06-26T13:09:52.659Z,31.63
2023-06-26T13:12:54.084Z,31.62
2023-06-26T13:15:55.525Z,31.64
2023-06-26T13:18:59.940Z,31.58
2023-06-26T13:22:01.576Z,31.64
2023-06-26T13:25:05.114Z,31.60
2023-06-26T13:28:06.560Z,31.84
2023-06-26T13:31:08.162Z,31.78
2023-06-26T13:34:09.794Z,31.56
2023-06-26T13:37:11.238Z,31.83
2023-06-26T13:40:13.274Z,31.88
2023-06-26T13:43:14.702Z,31.89
2023-06-26T13:46:18.160Z,32.06
2023-06-26T13:49:19.854Z,31.93
2023-06-26T13:52:21.699Z,31.91
2023-06-26T13:55:23.732Z,31.87
2023-06-26T13:58:27.845Z,32.06
2023-06-26T14:01:29.442Z,32.16
2023-06-26T14:04:30.945Z,32.04
2023-06-26T14:07:33.840Z,32.13
2023-06-26T14:10:35.540Z,32.04
2023-06-26T14:13:37.032Z,32.14
2023-06-26T14:16:38.568Z,32.40
2023-06-26T14:19:41.883Z,32.40
2023-06-26T14:22:44.778Z,32.06
2023-06-26T14:25:49.294Z,32.07
2023-06-26T14:28:51.297Z,32.10
2023-06-26T14:31:53.725Z,32.00
2023-06-26T14:34:59.052Z,32.13
2023-06-26T14:38:00.605Z,32.28
2023-06-26T14:41:02.115Z,32.08
2023-06-26T14:44:05.685Z,31.87
2023-06-26T14:47:07.612Z,31.62
2023-06-26T14:50:10.035Z,31.83
2023-06-26T14:53:11.463Z,31.55
2023-06-26T14:56:13.343Z,31.62
2023-06-26T14:59:14.990Z,31.43
2023-06-26T15:02:16.493Z,31.14
2023-06-26T15:05:17.985Z,30.81
2023-06-26T15:08:19.497Z,30.76
2023-06-26T15:11:20.925Z,30.87
2023-06-26T15:14:22.341Z,31.11
2023-06-26T15:17:23.910Z,31.45
2023-06-26T15:20:25.393Z,31.62
2023-06-26T15:23:28.158Z,31.62
2023-06-26T15:26:29.688Z,31.49
2023-06-26T15:29:31.155Z,31.61
2023-06-26T15:32:33.126Z,31.63
2023-06-26T15:35:34.579Z,31.79
2023-06-26T15:38:36.096Z,31.70
2023-06-26T15:41:38.265Z,31.30
2023-06-26T15:44:40.057Z,30.86
2023-06-26T15:47:42.760Z,30.64
2023-06-26T15:50:44.274Z,30.63
2023-06-26T15:53:45.718Z,30.74
2023-06-26T15:56:47.853Z,30.66
2023-06-26T15:59:50.301Z,30.62
2023-06-26T16:02:52.003Z,30.62
2023-06-26T16:05:53.509Z,30.60
2023-06-26T16:08:57.635Z,30.69
2023-06-26T16:12:01.028Z,30.35
2023-06-26T16:15:02.695Z,30.60
2023-06-26T16:18:04.176Z,30.69
2023-06-26T16:21:05.807Z,30.64
2023-06-26T16:24:07.433Z,30.77
2023-06-26T16:27:09.634Z,30.89
2023-06-26T16:30:12.506Z,30.79
2023-06-26T16:33:14.035Z,30.80
2023-06-26T16:36:15.892Z,30.69
2023-06-26T16:39:20.684Z,30.58
2023-06-26T16:42:22.552Z,30.66
2023-06-26T16:45:24.090Z,30.62
2023-06-26T16:48:25.523Z,30.45
2023-06-26T16:51:27.044Z,30.20
2023-06-26T16:54:28.544Z,30.26
2023-06-26T16:57:30.096Z,30.23
2023-06-26T17:00:31.573Z,29.95
2023-06-26T17:03:34.998Z,29.61
2023-06-26T17:06:36.494Z,29.63
2023-06-26T17:09:37.991Z,29.52
2023-06-26T17:12:40.481Z,29.53
2023-06-26T17:15:41.921Z,29.69
2023-06-26T17:18:43.428Z,29.53
2023-06-26T17:21:48.672Z,29.27
2023-06-26T17:24:50.782Z,29.04
2023-06-26T17:27:54.277Z,29.01
2023-06-26T17:30:56.266Z,28.97
2023-06-26T17:33:57.979Z,29.00
2023-06-26T17:37:01.486Z,28.91
2023-06-26T17:40:09.775Z,28.87
2023-06-26T17:43:11.283Z,28.84
2023-06-26T17:46:12.845Z,28.77
2023-06-26T17:49:14.607Z,28.64
2023-06-26T17:52:16.538Z,28.79
2023-06-26T17:55:17.995Z,28.69
2023-06-26T17:58:19.460Z,28.42
2023-06-26T18:01:21.133Z,28.51
2023-06-26T18:04:22.779Z,28.25
2023-06-26T18:07:25.349Z,28.00
2023-06-26T18:10:27.085Z,28.06
2023-06-26T18:13:29.253Z,27.94
2023-06-26T18:16:31.749Z,27.77
2023-06-26T18:19:33.269Z,27.75
2023-06-26T18:22:34.841Z,27.74
2023-06-26T18:25:36.428Z,27.62
2023-06-26T18:28:38.906Z,27.38
2023-06-26T18:31:40.447Z,27.27
2023-06-26T18:34:41.923Z,27.13
2023-06-26T18:37:43.645Z,27.02
2023-06-26T18:40:45.574Z,26.82
2023-06-26T18:43:49.934Z,26.70
2023-06-26T18:46:51.489Z,26.82
2023-06-26T18:49:53.119Z,26.88
2023-06-26T18:52:55.550Z,26.77
2023-06-26T18:55:57.448Z,26.89
2023-06-26T18:58:59.276Z,26.96
2023-06-26T19:02:03.082Z,26.95
2023-06-26T19:05:07.710Z,26.91
2023-06-26T19:08:09.538Z,26.65
2023-06-26T19:11:11.219Z,26.50
2023-06-26T19:14:12.718Z,26.46
2023-06-26T19:17:14.277Z,26.29
2023-06-26T19:20:17.374Z,26.42
2023-06-26T19:23:20.183Z,26.43
2023-06-26T19:26:22.980Z,26.39
2023-06-26T19:29:25.606Z,26.10
2023-06-26T19:32:27.137Z,26.16
2023-06-26T19:35:29.040Z,26.10
2023-06-26T19:38:30.500Z,26.03
2023-06-26T19:41:32.019Z,26.11
2023-06-26T19:44:33.478Z,25.74
2023-06-26T19:47:36.397Z,25.57
2023-06-26T19:50:37.915Z,25.49
2023-06-26T19:53:39.363Z,25.58
2023-06-26T19:56:41.768Z,25.62
2023-06-26T19:59:44.243Z,25.59
2023-06-26T20:02:45.855Z,25.38
2023-06-26T20:05:48.320Z,25.24
2023-06-26T20:08:50.340Z,25.03
2023-06-26T20:11:51.789Z,24.93
2023-06-26T20:14:53.270Z,24.88
2023-06-26T20:17:54.749Z,24.84
2023-06-26T20:20:56.287Z,24.93
2023-06-26T20:23:57.731Z,24.83
2023-06-26T20:26:59.156Z,24.82
2023-06-26T20:30:02.360Z,24.66
2023-06-26T20:33:03.908Z,24.49
2023-06-26T20:36:05.562Z,24.43
2023-06-26T20:39:07.063Z,24.43
2023-06-26T20:42:09.245Z,24.40
2023-06-26T20:45:13.672Z,24.33
2023-06-26T20:48:17.112Z,24.34
2023-06-26T20:51:24.948Z,24.42
2023-06-26T20:54:27.720Z,24.32
2023-06-26T20:57:29.175Z,24.36
2023-06-26T21:00:30.776Z,24.33
2023-06-26T21:03:34.313Z,24.34
2023-06-26T21:06:35.888Z,24.32
2023-06-26T21:09:37.374Z,24.23
2023-06-26T21:12:39.283Z,24.07
2023-06-26T21:15:41.137Z,24.02
2023-06-26T21:21:45.597Z,23.73
2023-06-26T21:24:47.130Z,23.66
2023-06-26T21:27:48.766Z,23.63
2023-06-26T21:30:50.208Z,23.63
2023-06-26T21:33:51.766Z,23.67
2023-06-26T21:36:54.815Z,23.55
2023-06-26T21:39:56.251Z,23.48
2023-06-26T21:42:57.691Z,23.49
2023-06-26T21:45:59.128Z,23.52
2023-06-26T21:49:00.593Z,23.47
2023-06-26T21:52:02.057Z,23.46
2023-06-26T21:55:04.173Z,23.38
2023-06-26T21:58:05.644Z,23.35
2023-06-26T22:01:10.632Z,23.32
2023-06-26T22:04:12.573Z,23.38
2023-06-26T22:07:14.104Z,23.45
2023-06-26T22:10:15.893Z,23.38
2023-06-26T22:13:17.689Z,23.29
2023-06-26T22:16:19.134Z,23.32
2023-06-26T22:19:20.600Z,23.26
2023-06-26T22:22:22.248Z,23.21
2023-06-26T22:25:24.305Z,23.09
2023-06-26T22:28:25.793Z,23.09
2023-06-26T22:31:27.251Z,23.02
2023-06-26T22:34:28.769Z,22.98
2023-06-26T22:37:30.594Z,23.01
2023-06-26T22:40:32.082Z,22.95
2023-06-26T22:43:34.510Z,22.97
2023-06-26T22:46:36.015Z,22.88
2023-06-26T22:49:37.437Z,22.76
2023-06-26T22:52:39.329Z,22.69
2023-06-26T22:55:40.988Z,22.83
2023-06-26T22:58:42.638Z,22.80
2023-06-26T23:01:44.254Z,22.75
2023-06-26T23:04:46.037Z,22.84
2023-06-26T23:07:47.496Z,22.83
2023-06-26T23:10:48.942Z,22.85
2023-06-26T23:13:50.524Z,22.81
2023-06-26T23:17:04.572Z,22.77
2023-06-26T23:20:06.704Z,22.81
2023-06-26T23:23:08.366Z,22.84
2023-06-26T23:26:09.819Z,22.80
2023-06-26T23:29:11.259Z,22.87
2023-06-26T23:32:15.798Z,22.88
2023-06-26T23:35:17.765Z,22.86
2023-06-26T23:38:19.262Z,22.85
2023-06-26T23:41:20.727Z,22.67
2023-06-26T23:44:22.641Z,22.55
2023-06-26T23:47:24.149Z,22.50
2023-06-26T23:50:27.655Z,22.50
2023-06-26T23:53:29.111Z,22.44
2023-06-26T23:56:31.547Z,22.42
2023-06-26T23:59:32.961Z,22.44
